sensor_id;sensor_type;location;lat;lon;timestamp;P1;durP1;ratioP1;P2;durP2;ratioP2
12556;SDS011;6344;49.932;8.308;2023-04-28T00:00:45;8.77;;;7.97;;
12556;SDS011;6344;49.932;8.308;2023-04-28T00:03:12;9.33;;;8.53;;
12556;SDS011;6344;49.932;8.308;2023-04-28T00:05:39;8.83;;;8.23;;
12556;SDS011;6344;49.932;8.308;2023-04-28T00:08:06;8.67;;;7.80;;
12556;SDS011;6344;49.932;8.308;2023-04-28T00:10:34;8.43;;;7.37;;
12556;SDS011;6344;49.932;8.308;2023-04-28T00:13:00;11.23;;;8.87;;
12556;SDS011;6344;49.932;8.308;2023-04-28T00:15:27;8.63;;;7.73;;
12556;SDS011;6344;49.932;8.308;2023-04-28T00:17:54;8.73;;;7.93;;
12556;SDS011;6344;49.932;8.308;2023-04-28T00:20:20;9.87;;;7.03;;
12556;SDS011;6344;49.932;8.308;2023-04-28T00:22:47;10.70;;;8.33;;
12556;SDS011;6344;49.932;8.308;2023-04-28T00:25:14;8.53;;;7.83;;
12556;SDS011;6344;49.932;8.308;2023-04-28T00:27:42;7.90;;;7.17;;
12556;SDS011;6344;49.932;8.308;2023-04-28T00:30:09;12.20;;;7.70;;
12556;SDS011;6344;49.932;8.308;2023-04-28T00:32:36;7.17;;;6.57;;
12556;SDS011;6344;49.932;8.308;2023-04-28T00:35:03;9.10;;;8.30;;
12556;SDS011;6344;49.932;8.308;2023-04-28T00:37:31;9.30;;;7.77;;
12556;SDS011;6344;49.932;8.308;2023-04-28T00:40:01;8.37;;;7.17;;
12556;SDS011;6344;49.932;8.308;2023-04-28T00:42:27;10.23;;;8.13;;
12556;SDS011;6344;49.932;8.308;2023-04-28T00:44:56;8.90;;;7.30;;
12556;SDS011;6344;49.932;8.308;2023-04-28T00:47:23;8.97;;;8.17;;
12556;SDS011;6344;49.932;8.308;2023-04-28T00:49:50;8.97;;;8.07;;
12556;SDS011;6344;49.932;8.308;2023-04-28T00:52:17;8.77;;;7.77;;
12556;SDS011;6344;49.932;8.308;2023-04-28T00:54:43;9.20;;;8.40;;
12556;SDS011;6344;49.932;8.308;2023-04-28T00:57:11;10.13;;;8.07;;
12556;SDS011;6344;49.932;8.308;2023-04-28T00:59:38;8.40;;;7.63;;
12556;SDS011;6344;49.932;8.308;2023-04-28T01:02:06;8.90;;;8.10;;
12556;SDS011;6344;49.932;8.308;2023-04-28T01:04:33;15.23;;;8.30;;
12556;SDS011;6344;49.932;8.308;2023-04-28T01:07:01;9.07;;;8.17;;
12556;SDS011;6344;49.932;8.308;2023-04-28T01:09:28;8.87;;;7.97;;
12556;SDS011;6344;49.932;8.308;2023-04-28T01:11:55;14.70;;;9.10;;
12556;SDS011;6344;49.932;8.308;2023-04-28T01:14:22;11.20;;;9.03;;
12556;SDS011;6344;49.932;8.308;2023-04-28T01:16:48;11.47;;;8.63;;
12556;SDS011;6344;49.932;8.308;2023-04-28T01:19:19;10.67;;;9.57;;
12556;SDS011;6344;49.932;8.308;2023-04-28T01:21:47;14.40;;;8.77;;
12556;SDS011;6344;49.932;8.308;2023-04-28T01:24:15;9.77;;;8.93;;
12556;SDS011;6344;49.932;8.308;2023-04-28T01:26:42;12.83;;;11.43;;
12556;SDS011;6344;49.932;8.308;2023-04-28T01:29:08;10.73;;;9.83;;
12556;SDS011;6344;49.932;8.308;2023-04-28T01:31:35;11.30;;;9.70;;
12556;SDS011;6344;49.932;8.308;2023-04-28T01:34:01;9.87;;;8.97;;
12556;SDS011;6344;49.932;8.308;2023-04-28T01:36:28;11.50;;;10.37;;
12556;SDS011;6344;49.932;8.308;2023-04-28T01:38:56;12.97;;;11.10;;
12556;SDS011;6344;49.932;8.308;2023-04-28T01:41:24;12.33;;;10.60;;
12556;SDS011;6344;49.932;8.308;2023-04-28T01:43:50;14.33;;;10.80;;
12556;SDS011;6344;49.932;8.308;2023-04-28T01:46:17;10.43;;;9.53;;
12556;SDS011;6344;49.932;8.308;2023-04-28T01:48:44;11.27;;;10.27;;
12556;SDS011;6344;49.932;8.308;2023-04-28T01:51:11;13.27;;;11.30;;
12556;SDS011;6344;49.932;8.308;2023-04-28T01:53:38;11.43;;;10.30;;
12556;SDS011;6344;49.932;8.308;2023-04-28T01:56:04;10.10;;;9.30;;
12556;SDS011;6344;49.932;8.308;2023-04-28T01:58:32;11.13;;;9.97;;
12556;SDS011;6344;49.932;8.308;2023-04-28T02:00:59;10.83;;;9.70;;
12556;SDS011;6344;49.932;8.308;2023-04-28T02:03:26;11.50;;;10.50;;
12556;SDS011;6344;49.932;8.308;2023-04-28T02:05:52;10.43;;;9.50;;
12556;SDS011;6344;49.932;8.308;2023-04-28T02:08:19;11.90;;;9.47;;
12556;SDS011;6344;49.932;8.308;2023-04-28T02:10:46;13.03;;;10.40;;
12556;SDS011;6344;49.932;8.308;2023-04-28T02:13:12;11.93;;;9.23;;
12556;SDS011;6344;49.932;8.308;2023-04-28T02:15:42;9.97;;;9.10;;
12556;SDS011;6344;49.932;8.308;2023-04-28T02:18:09;13.10;;;9.90;;
12556;SDS011;6344;49.932;8.308;2023-04-28T02:20:36;10.93;;;9.80;;
12556;SDS011;6344;49.932;8.308;2023-04-28T02:23:02;10.13;;;9.23;;
12556;SDS011;6344;49.932;8.308;2023-04-28T02:25:29;14.97;;;10.33;;
12556;SDS011;6344;49.932;8.308;2023-04-28T02:27:56;12.10;;;10.90;;
12556;SDS011;6344;49.932;8.308;2023-04-28T02:30:23;10.87;;;9.87;;
12556;SDS011;6344;49.932;8.308;2023-04-28T02:32:51;11.50;;;10.50;;
12556;SDS011;6344;49.932;8.308;2023-04-28T02:35:17;12.03;;;10.73;;
12556;SDS011;6344;49.932;8.308;2023-04-28T02:37:44;10.50;;;9.67;;
12556;SDS011;6344;49.932;8.308;2023-04-28T02:40:11;11.47;;;10.67;;
12556;SDS011;6344;49.932;8.308;2023-04-28T02:42:38;9.83;;;9.03;;
12556;SDS011;6344;49.932;8.308;2023-04-28T02:45:05;10.03;;;9.13;;
12556;SDS011;6344;49.932;8.308;2023-04-28T02:47:32;10.23;;;9.33;;
12556;SDS011;6344;49.932;8.308;2023-04-28T02:50:00;9.43;;;8.67;;
12556;SDS011;6344;49.932;8.308;2023-04-28T02:52:27;12.10;;;10.00;;
12556;SDS011;6344;49.932;8.308;2023-04-28T02:54:53;10.17;;;9.37;;
12556;SDS011;6344;49.932;8.308;2023-04-28T02:57:21;10.93;;;9.80;;
12556;SDS011;6344;49.932;8.308;2023-04-28T02:59:48;9.47;;;8.60;;
12556;SDS011;6344;49.932;8.308;2023-04-28T03:02:15;10.30;;;9.27;;
12556;SDS011;6344;49.932;8.308;2023-04-28T03:04:41;10.70;;;9.60;;
12556;SDS011;6344;49.932;8.308;2023-04-28T03:07:09;10.83;;;9.80;;
12556;SDS011;6344;49.932;8.308;2023-04-28T03:09:36;10.43;;;9.43;;
12556;SDS011;6344;49.932;8.308;2023-04-28T03:12:03;10.40;;;9.50;;
12556;SDS011;6344;49.932;8.308;2023-04-28T03:14:30;10.60;;;9.70;;
12556;SDS011;6344;49.932;8.308;2023-04-28T03:16:56;11.27;;;10.37;;
12556;SDS011;6344;49.932;8.308;2023-04-28T03:19:23;12.57;;;10.00;;
12556;SDS011;6344;49.932;8.308;2023-04-28T03:21:50;10.90;;;9.93;;
12556;SDS011;6344;49.932;8.308;2023-04-28T03:24:18;11.37;;;10.20;;
12556;SDS011;6344;49.932;8.308;2023-04-28T03:26:45;10.47;;;9.77;;
12556;SDS011;6344;49.932;8.308;2023-04-28T03:29:11;11.27;;;10.27;;
12556;SDS011;6344;49.932;8.308;2023-04-28T03:31:38;11.83;;;10.90;;
12556;SDS011;6344;49.932;8.308;2023-04-28T03:34:04;12.10;;;10.03;;
12556;SDS011;6344;49.932;8.308;2023-04-28T03:36:31;11.70;;;10.70;;
12556;SDS011;6344;49.932;8.308;2023-04-28T03:38:58;12.80;;;11.70;;
12556;SDS011;6344;49.932;8.308;2023-04-28T03:41:26;12.00;;;11.00;;
12556;SDS011;6344;49.932;8.308;2023-04-28T03:43:52;12.40;;;11.50;;
12556;SDS011;6344;49.932;8.308;2023-04-28T03:46:20;13.30;;;12.00;;
12556;SDS011;6344;49.932;8.308;2023-04-28T03:48:47;12.47;;;11.23;;
12556;SDS011;6344;49.932;8.308;2023-04-28T03:51:14;11.97;;;11.00;;
12556;SDS011;6344;49.932;8.308;2023-04-28T03:53:41;12.47;;;11.40;;
12556;SDS011;6344;49.932;8.308;2023-04-28T03:56:07;11.30;;;10.30;;
12556;SDS011;6344;49.932;8.308;2023-04-28T03:58:35;12.33;;;11.33;;
12556;SDS011;6344;49.932;8.308;2023-04-28T04:01:02;13.07;;;11.90;;
12556;SDS011;6344;49.932;8.308;2023-04-28T04:03:29;13.03;;;11.97;;
12556;SDS011;6344;49.932;8.308;2023-04-28T04:05:56;12.50;;;11.20;;
12556;SDS011;6344;49.932;8.308;2023-04-28T04:08:23;14.13;;;13.03;;
12556;SDS011;6344;49.932;8.308;2023-04-28T04:10:50;13.20;;;12.00;;
12556;SDS011;6344;49.932;8.308;2023-04-28T04:13:18;13.40;;;12.00;;
12556;SDS011;6344;49.932;8.308;2023-04-28T04:15:46;12.90;;;11.80;;
12556;SDS011;6344;49.932;8.308;2023-04-28T04:18:14;14.00;;;12.80;;
12556;SDS011;6344;49.932;8.308;2023-04-28T04:20:40;14.03;;;12.83;;
12556;SDS011;6344;49.932;8.308;2023-04-28T04:23:07;14.17;;;12.70;;
12556;SDS011;6344;49.932;8.308;2023-04-28T04:25:34;14.43;;;13.13;;
12556;SDS011;6344;49.932;8.308;2023-04-28T04:28:00;15.27;;;13.90;;
12556;SDS011;6344;49.932;8.308;2023-04-28T04:30:27;15.27;;;14.03;;
12556;SDS011;6344;49.932;8.308;2023-04-28T04:32:55;15.20;;;13.90;;
12556;SDS011;6344;49.932;8.308;2023-04-28T04:35:22;17.50;;;15.80;;
12556;SDS011;6344;49.932;8.308;2023-04-28T04:37:49;15.13;;;13.63;;
12556;SDS011;6344;49.932;8.308;2023-04-28T04:40:16;14.20;;;12.70;;
12556;SDS011;6344;49.932;8.308;2023-04-28T04:42:42;15.37;;;13.80;;
12556;SDS011;6344;49.932;8.308;2023-04-28T04:45:09;21.30;;;14.73;;
12556;SDS011;6344;49.932;8.308;2023-04-28T04:47:36;15.27;;;13.97;;
12556;SDS011;6344;49.932;8.308;2023-04-28T04:50:04;17.13;;;15.43;;
12556;SDS011;6344;49.932;8.308;2023-04-28T04:52:32;17.00;;;15.47;;
12556;SDS011;6344;49.932;8.308;2023-04-28T04:54:58;16.27;;;14.77;;
12556;SDS011;6344;49.932;8.308;2023-04-28T04:57:25;16.43;;;14.87;;
12556;SDS011;6344;49.932;8.308;2023-04-28T04:59:52;18.33;;;15.33;;
12556;SDS011;6344;49.932;8.308;2023-04-28T05:02:18;17.53;;;15.80;;
12556;SDS011;6344;49.932;8.308;2023-04-28T05:04:45;18.03;;;16.37;;
12556;SDS011;6344;49.932;8.308;2023-04-28T05:07:13;16.73;;;14.93;;
12556;SDS011;6344;49.932;8.308;2023-04-28T05:09:39;16.50;;;14.90;;
12556;SDS011;6344;49.932;8.308;2023-04-28T05:12:06;16.73;;;15.03;;
12556;SDS011;6344;49.932;8.308;2023-04-28T05:14:33;15.10;;;13.73;;
12556;SDS011;6344;49.932;8.308;2023-04-28T05:17:00;16.03;;;14.63;;
12556;SDS011;6344;49.932;8.308;2023-04-28T05:19:26;16.70;;;15.40;;
12556;SDS011;6344;49.932;8.308;2023-04-28T05:21:53;16.83;;;15.33;;
12556;SDS011;6344;49.932;8.308;2023-04-28T05:24:21;15.00;;;13.90;;
12556;SDS011;6344;49.932;8.308;2023-04-28T05:26:48;16.30;;;14.67;;
12556;SDS011;6344;49.932;8.308;2023-04-28T05:29:15;16.13;;;14.73;;
12556;SDS011;6344;49.932;8.308;2023-04-28T05:31:42;14.57;;;13.27;;
12556;SDS011;6344;49.932;8.308;2023-04-28T05:34:08;15.77;;;14.47;;
12556;SDS011;6344;49.932;8.308;2023-04-28T05:36:35;17.30;;;15.50;;
12556;SDS011;6344;49.932;8.308;2023-04-28T05:39:02;16.27;;;14.77;;
12556;SDS011;6344;49.932;8.308;2023-04-28T05:41:30;17.77;;;16.23;;
12556;SDS011;6344;49.932;8.308;2023-04-28T05:43:57;17.70;;;16.00;;
12556;SDS011;6344;49.932;8.308;2023-04-28T05:46:23;17.53;;;16.03;;
12556;SDS011;6344;49.932;8.308;2023-04-28T05:48:50;16.70;;;15.20;;
12556;SDS011;6344;49.932;8.308;2023-04-28T05:51:17;17.53;;;15.73;;
12556;SDS011;6344;49.932;8.308;2023-04-28T05:53:43;16.97;;;15.47;;
12556;SDS011;6344;49.932;8.308;2023-04-28T05:56:12;20.93;;;16.30;;
12556;SDS011;6344;49.932;8.308;2023-04-28T05:58:41;17.40;;;15.73;;
12556;SDS011;6344;49.932;8.308;2023-04-28T06:01:08;19.03;;;17.20;;
12556;SDS011;6344;49.932;8.308;2023-04-28T06:03:35;18.07;;;16.33;;
12556;SDS011;6344;49.932;8.308;2023-04-28T06:06:02;22.40;;;20.33;;
12556;SDS011;6344;49.932;8.308;2023-04-28T06:08:29;22.53;;;20.40;;
12556;SDS011;6344;49.932;8.308;2023-04-28T06:10:55;23.07;;;20.80;;
12556;SDS011;6344;49.932;8.308;2023-04-28T06:13:22;21.37;;;19.57;;
12556;SDS011;6344;49.932;8.308;2023-04-28T06:15:50;20.70;;;18.80;;
12556;SDS011;6344;49.932;8.308;2023-04-28T06:18:17;21.37;;;19.40;;
12556;SDS011;6344;49.932;8.308;2023-04-28T06:20:43;20.97;;;19.03;;
12556;SDS011;6344;49.932;8.308;2023-04-28T06:23:10;19.93;;;18.23;;
12556;SDS011;6344;49.932;8.308;2023-04-28T06:25:37;21.23;;;19.53;;
12556;SDS011;6344;49.932;8.308;2023-04-28T06:28:04;19.53;;;17.60;;
12556;SDS011;6344;49.932;8.308;2023-04-28T06:30:32;18.50;;;16.90;;
12556;SDS011;6344;49.932;8.308;2023-04-28T06:33:00;19.13;;;16.93;;
12556;SDS011;6344;49.932;8.308;2023-04-28T06:35:27;19.87;;;18.17;;
12556;SDS011;6344;49.932;8.308;2023-04-28T06:37:54;19.40;;;17.60;;
12556;SDS011;6344;49.932;8.308;2023-04-28T06:40:21;21.33;;;17.37;;
12556;SDS011;6344;49.932;8.308;2023-04-28T06:42:47;20.07;;;18.27;;
12556;SDS011;6344;49.932;8.308;2023-04-28T06:45:14;20.27;;;17.77;;
12556;SDS011;6344;49.932;8.308;2023-04-28T06:47:40;19.73;;;17.80;;
12556;SDS011;6344;49.932;8.308;2023-04-28T06:50:09;20.90;;;18.90;;
12556;SDS011;6344;49.932;8.308;2023-04-28T06:52:36;21.50;;;18.27;;
12556;SDS011;6344;49.932;8.308;2023-04-28T06:55:04;19.20;;;17.20;;
12556;SDS011;6344;49.932;8.308;2023-04-28T06:57:31;19.37;;;17.67;;
12556;SDS011;6344;49.932;8.308;2023-04-28T06:59:57;19.90;;;18.10;;
12556;SDS011;6344;49.932;8.308;2023-04-28T07:02:24;21.07;;;19.23;;
12556;SDS011;6344;49.932;8.308;2023-04-28T07:04:51;19.97;;;18.23;;
12556;SDS011;6344;49.932;8.308;2023-04-28T07:07:19;19.37;;;17.50;;
12556;SDS011;6344;49.932;8.308;2023-04-28T07:09:45;20.67;;;18.20;;
12556;SDS011;6344;49.932;8.308;2023-04-28T07:12:12;21.50;;;19.40;;
12556;SDS011;6344;49.932;8.308;2023-04-28T07:14:39;21.33;;;19.43;;
12556;SDS011;6344;49.932;8.308;2023-04-28T07:17:05;19.50;;;17.60;;
12556;SDS011;6344;49.932;8.308;2023-04-28T07:19:32;19.70;;;18.00;;
12556;SDS011;6344;49.932;8.308;2023-04-28T07:21:58;19.57;;;17.87;;
12556;SDS011;6344;49.932;8.308;2023-04-28T07:24:26;22.43;;;18.00;;
12556;SDS011;6344;49.932;8.308;2023-04-28T07:26:54;20.57;;;18.63;;
12556;SDS011;6344;49.932;8.308;2023-04-28T07:29:21;20.50;;;18.60;;
12556;SDS011;6344;49.932;8.308;2023-04-28T07:31:48;19.63;;;18.03;;
12556;SDS011;6344;49.932;8.308;2023-04-28T07:34:14;20.27;;;18.63;;
12556;SDS011;6344;49.932;8.308;2023-04-28T07:36:41;20.80;;;18.80;;
12556;SDS011;6344;49.932;8.308;2023-04-28T07:39:08;19.13;;;17.23;;
12556;SDS011;6344;49.932;8.308;2023-04-28T07:41:36;20.83;;;18.83;;
12556;SDS011;6344;49.932;8.308;2023-04-28T07:44:03;18.70;;;17.20;;
12556;SDS011;6344;49.932;8.308;2023-04-28T07:46:32;19.77;;;17.97;;
12556;SDS011;6344;49.932;8.308;2023-04-28T07:48:59;20.20;;;18.40;;
12556;SDS011;6344;49.932;8.308;2023-04-28T07:51:26;21.47;;;19.23;;
12556;SDS011;6344;49.932;8.308;2023-04-28T07:53:52;19.03;;;17.33;;
12556;SDS011;6344;49.932;8.308;2023-04-28T07:56:19;19.93;;;18.13;;
12556;SDS011;6344;49.932;8.308;2023-04-28T07:58:48;20.80;;;18.80;;
12556;SDS011;6344;49.932;8.308;2023-04-28T08:01:14;21.87;;;20.07;;
12556;SDS011;6344;49.932;8.308;2023-04-28T08:03:41;21.07;;;19.03;;
12556;SDS011;6344;49.932;8.308;2023-04-28T08:06:08;25.80;;;20.50;;
12556;SDS011;6344;49.932;8.308;2023-04-28T08:08:34;23.43;;;21.03;;
12556;SDS011;6344;49.932;8.308;2023-04-28T08:11:01;21.27;;;19.37;;
12556;SDS011;6344;49.932;8.308;2023-04-28T08:13:28;20.03;;;18.23;;
12556;SDS011;6344;49.932;8.308;2023-04-28T08:15:56;19.10;;;17.30;;
12556;SDS011;6344;49.932;8.308;2023-04-28T08:18:24;22.07;;;20.17;;
12556;SDS011;6344;49.932;8.308;2023-04-28T08:20:51;19.90;;;18.13;;
12556;SDS011;6344;49.932;8.308;2023-04-28T08:23:17;20.00;;;18.10;;
12556;SDS011;6344;49.932;8.308;2023-04-28T08:25:44;20.93;;;19.17;;
12556;SDS011;6344;49.932;8.308;2023-04-28T08:28:12;21.00;;;19.27;;
12556;SDS011;6344;49.932;8.308;2023-04-28T08:30:38;20.53;;;18.80;;
12556;SDS011;6344;49.932;8.308;2023-04-28T08:33:06;20.87;;;18.97;;
12556;SDS011;6344;49.932;8.308;2023-04-28T08:35:33;21.10;;;19.10;;
12556;SDS011;6344;49.932;8.308;2023-04-28T08:37:59;24.33;;;22.23;;
12556;SDS011;6344;49.932;8.308;2023-04-28T08:40:26;23.90;;;21.73;;
12556;SDS011;6344;49.932;8.308;2023-04-28T08:42:55;22.30;;;20.13;;
12556;SDS011;6344;49.932;8.308;2023-04-28T08:45:22;25.00;;;22.67;;
12556;SDS011;6344;49.932;8.308;2023-04-28T08:47:49;23.67;;;21.63;;
12556;SDS011;6344;49.932;8.308;2023-04-28T08:50:20;22.33;;;20.40;;
12556;SDS011;6344;49.932;8.308;2023-04-28T08:52:47;24.23;;;22.00;;
12556;SDS011;6344;49.932;8.308;2023-04-28T08:55:17;21.30;;;19.50;;
12556;SDS011;6344;49.932;8.308;2023-04-28T08:57:44;22.37;;;20.37;;
12556;SDS011;6344;49.932;8.308;2023-04-28T09:00:15;22.90;;;20.83;;
12556;SDS011;6344;49.932;8.308;2023-04-28T09:02:42;20.77;;;19.07;;
12556;SDS011;6344;49.932;8.308;2023-04-28T09:05:09;21.20;;;19.40;;
12556;SDS011;6344;49.932;8.308;2023-04-28T09:07:38;23.20;;;21.10;;
12556;SDS011;6344;49.932;8.308;2023-04-28T09:10:18;23.37;;;21.40;;
12556;SDS011;6344;49.932;8.308;2023-04-28T09:12:46;22.90;;;21.07;;
12556;SDS011;6344;49.932;8.308;2023-04-28T09:15:26;22.53;;;20.70;;
12556;SDS011;6344;49.932;8.308;2023-04-28T09:17:55;23.03;;;21.23;;
12556;SDS011;6344;49.932;8.308;2023-04-28T09:20:22;23.17;;;21.17;;
12556;SDS011;6344;49.932;8.308;2023-04-28T09:22:51;22.07;;;20.00;;
12556;SDS011;6344;49.932;8.308;2023-04-28T09:25:19;23.00;;;20.90;;
12556;SDS011;6344;49.932;8.308;2023-04-28T09:27:46;23.97;;;22.00;;
12556;SDS011;6344;49.932;8.308;2023-04-28T09:30:13;22.50;;;20.53;;
12556;SDS011;6344;49.932;8.308;2023-04-28T09:32:40;22.40;;;20.70;;
12556;SDS011;6344;49.932;8.308;2023-04-28T09:35:07;23.13;;;21.10;;
12556;SDS011;6344;49.932;8.308;2023-04-28T09:37:34;24.37;;;22.37;;
12556;SDS011;6344;49.932;8.308;2023-04-28T09:40:04;22.73;;;21.03;;
12556;SDS011;6344;49.932;8.308;2023-04-28T09:42:33;23.30;;;21.60;;
12556;SDS011;6344;49.932;8.308;2023-04-28T09:45:01;22.30;;;20.63;;
12556;SDS011;6344;49.932;8.308;2023-04-28T09:47:29;23.73;;;21.87;;
12556;SDS011;6344;49.932;8.308;2023-04-28T09:49:57;23.23;;;21.50;;
12556;SDS011;6344;49.932;8.308;2023-04-28T09:52:25;24.27;;;22.33;;
12556;SDS011;6344;49.932;8.308;2023-04-28T09:54:53;23.37;;;21.37;;
12556;SDS011;6344;49.932;8.308;2023-04-28T09:57:22;23.07;;;20.97;;
12556;SDS011;6344;49.932;8.308;2023-04-28T09:59:50;23.83;;;21.93;;
12556;SDS011;6344;49.932;8.308;2023-04-28T10:02:18;23.93;;;21.77;;
12556;SDS011;6344;49.932;8.308;2023-04-28T10:04:46;24.73;;;22.60;;
12556;SDS011;6344;49.932;8.308;2023-04-28T10:07:14;22.33;;;20.53;;
12556;SDS011;6344;49.932;8.308;2023-04-28T10:09:42;22.97;;;20.97;;
12556;SDS011;6344;49.932;8.308;2023-04-28T10:12:11;23.67;;;21.60;;
12556;SDS011;6344;49.932;8.308;2023-04-28T10:14:40;21.43;;;19.83;;
12556;SDS011;6344;49.932;8.308;2023-04-28T10:17:08;20.37;;;18.70;;
12556;SDS011;6344;49.932;8.308;2023-04-28T10:19:36;22.77;;;21.07;;
12556;SDS011;6344;49.932;8.308;2023-04-28T10:22:08;21.30;;;19.60;;
12556;SDS011;6344;49.932;8.308;2023-04-28T10:25:11;24.17;;;22.30;;
12556;SDS011;6344;49.932;8.308;2023-04-28T10:27:49;23.47;;;21.50;;
12556;SDS011;6344;49.932;8.308;2023-04-28T10:30:19;25.37;;;23.20;;
12556;SDS011;6344;49.932;8.308;2023-04-28T10:32:46;24.07;;;22.07;;
12556;SDS011;6344;49.932;8.308;2023-04-28T10:35:40;24.07;;;22.00;;
12556;SDS011;6344;49.932;8.308;2023-04-28T10:38:08;24.40;;;22.50;;
12556;SDS011;6344;49.932;8.308;2023-04-28T10:40:36;24.70;;;22.50;;
12556;SDS011;6344;49.932;8.308;2023-04-28T10:43:05;24.67;;;22.80;;
12556;SDS011;6344;49.932;8.308;2023-04-28T10:48:52;25.60;;;23.50;;
12556;SDS011;6344;49.932;8.308;2023-04-28T10:51:21;24.93;;;22.83;;
12556;SDS011;6344;49.932;8.308;2023-04-28T10:59:42;26.03;;;23.73;;
12556;SDS011;6344;49.932;8.308;2023-04-28T11:05:14;24.87;;;22.80;;
12556;SDS011;6344;49.932;8.308;2023-04-28T11:11:11;23.67;;;21.93;;
12556;SDS011;6344;49.932;8.308;2023-04-28T11:13:38;23.27;;;21.50;;
12556;SDS011;6344;49.932;8.308;2023-04-28T11:16:05;22.70;;;20.90;;
12556;SDS011;6344;49.932;8.308;2023-04-28T11:18:37;23.57;;;21.80;;
12556;SDS011;6344;49.932;8.308;2023-04-28T11:21:21;20.60;;;19.20;;
12556;SDS011;6344;49.932;8.308;2023-04-28T11:23:48;21.63;;;20.10;;
12556;SDS011;6344;49.932;8.308;2023-04-28T11:26:15;21.37;;;19.73;;
12556;SDS011;6344;49.932;8.308;2023-04-28T11:28:47;19.70;;;18.10;;
12556;SDS011;6344;49.932;8.308;2023-04-28T11:31:15;21.97;;;19.90;;
12556;SDS011;6344;49.932;8.308;2023-04-28T11:33:47;20.60;;;18.90;;
12556;SDS011;6344;49.932;8.308;2023-04-28T11:36:22;19.13;;;17.73;;
12556;SDS011;6344;49.932;8.308;2023-04-28T11:38:50;20.83;;;19.27;;
12556;SDS011;6344;49.932;8.308;2023-04-28T11:41:16;21.47;;;19.70;;
12556;SDS011;6344;49.932;8.308;2023-04-28T11:43:43;18.87;;;17.30;;
12556;SDS011;6344;49.932;8.308;2023-04-28T11:46:14;21.27;;;19.57;;
12556;SDS011;6344;49.932;8.308;2023-04-28T11:48:47;23.30;;;19.33;;
12556;SDS011;6344;49.932;8.308;2023-04-28T11:51:30;21.00;;;19.10;;
12556;SDS011;6344;49.932;8.308;2023-04-28T11:53:59;20.67;;;19.17;;
12556;SDS011;6344;49.932;8.308;2023-04-28T11:56:26;16.60;;;15.27;;
12556;SDS011;6344;49.932;8.308;2023-04-28T11:59:00;17.60;;;16.30;;
12556;SDS011;6344;49.932;8.308;2023-04-28T12:01:32;17.80;;;16.40;;
12556;SDS011;6344;49.932;8.308;2023-04-28T12:04:02;17.23;;;15.93;;
12556;SDS011;6344;49.932;8.308;2023-04-28T12:06:29;17.60;;;16.13;;
12556;SDS011;6344;49.932;8.308;2023-04-28T12:08:56;18.47;;;16.97;;
12556;SDS011;6344;49.932;8.308;2023-04-28T12:11:28;16.53;;;15.23;;
12556;SDS011;6344;49.932;8.308;2023-04-28T12:14:01;17.80;;;16.50;;
12556;SDS011;6344;49.932;8.308;2023-04-28T12:16:41;15.93;;;14.83;;
12556;SDS011;6344;49.932;8.308;2023-04-28T12:19:11;14.50;;;13.50;;
12556;SDS011;6344;49.932;8.308;2023-04-28T12:21:39;14.17;;;13.20;;
12556;SDS011;6344;49.932;8.308;2023-04-28T12:24:16;14.30;;;13.30;;
12556;SDS011;6344;49.932;8.308;2023-04-28T12:26:43;11.90;;;10.97;;
12556;SDS011;6344;49.932;8.308;2023-04-28T12:32:02;13.40;;;12.50;;
12556;SDS011;6344;49.932;8.308;2023-04-28T12:34:31;13.07;;;12.07;;
12556;SDS011;6344;49.932;8.308;2023-04-28T12:36:58;14.37;;;13.27;;
12556;SDS011;6344;49.932;8.308;2023-04-28T12:39:25;14.03;;;12.73;;
12556;SDS011;6344;49.932;8.308;2023-04-28T12:41:52;13.63;;;12.53;;
12556;SDS011;6344;49.932;8.308;2023-04-28T12:44:19;9.93;;;9.23;;
12556;SDS011;6344;49.932;8.308;2023-04-28T12:46:46;11.43;;;10.63;;
12556;SDS011;6344;49.932;8.308;2023-04-28T12:49:13;10.77;;;9.97;;
12556;SDS011;6344;49.932;8.308;2023-04-28T12:51:41;10.50;;;9.80;;
12556;SDS011;6344;49.932;8.308;2023-04-28T12:54:08;10.57;;;9.77;;
12556;SDS011;6344;49.932;8.308;2023-04-28T12:56:34;11.60;;;10.63;;
12556;SDS011;6344;49.932;8.308;2023-04-28T12:59:01;10.37;;;9.57;;
12556;SDS011;6344;49.932;8.308;2023-04-28T13:01:28;10.33;;;9.53;;
12556;SDS011;6344;49.932;8.308;2023-04-28T13:03:55;10.87;;;10.07;;
12556;SDS011;6344;49.932;8.308;2023-04-28T13:06:22;12.47;;;11.57;;
12556;SDS011;6344;49.932;8.308;2023-04-28T13:08:50;12.90;;;12.10;;
12556;SDS011;6344;49.932;8.308;2023-04-28T13:11:16;13.97;;;13.07;;
12556;SDS011;6344;49.932;8.308;2023-04-28T13:13:43;14.77;;;13.67;;
12556;SDS011;6344;49.932;8.308;2023-04-28T13:16:10;13.50;;;12.50;;
12556;SDS011;6344;49.932;8.308;2023-04-28T13:18:38;13.03;;;12.20;;
12556;SDS011;6344;49.932;8.308;2023-04-28T13:21:04;12.80;;;12.00;;
12556;SDS011;6344;49.932;8.308;2023-04-28T13:23:31;12.70;;;11.80;;
12556;SDS011;6344;49.932;8.308;2023-04-28T13:25:59;11.70;;;10.90;;
12556;SDS011;6344;49.932;8.308;2023-04-28T13:28:28;12.37;;;11.57;;
12556;SDS011;6344;49.932;8.308;2023-04-28T13:30:54;12.17;;;11.37;;
12556;SDS011;6344;49.932;8.308;2023-04-28T13:33:21;11.30;;;10.50;;
12556;SDS011;6344;49.932;8.308;2023-04-28T13:35:54;12.53;;;11.73;;
12556;SDS011;6344;49.932;8.308;2023-04-28T13:38:21;12.97;;;12.07;;
12556;SDS011;6344;49.932;8.308;2023-04-28T13:40:48;12.50;;;11.63;;
12556;SDS011;6344;49.932;8.308;2023-04-28T13:43:16;13.03;;;12.13;;
12556;SDS011;6344;49.932;8.308;2023-04-28T13:45:43;12.77;;;11.93;;
12556;SDS011;6344;49.932;8.308;2023-04-28T13:48:10;13.00;;;12.10;;
12556;SDS011;6344;49.932;8.308;2023-04-28T13:50:37;14.10;;;13.10;;
12556;SDS011;6344;49.932;8.308;2023-04-28T13:53:03;14.03;;;13.03;;
12556;SDS011;6344;49.932;8.308;2023-04-28T13:55:30;15.10;;;14.00;;
12556;SDS011;6344;49.932;8.308;2023-04-28T13:57:56;15.43;;;14.43;;
12556;SDS011;6344;49.932;8.308;2023-04-28T14:00:28;15.57;;;14.40;;
12556;SDS011;6344;49.932;8.308;2023-04-28T14:02:54;15.80;;;14.70;;
12556;SDS011;6344;49.932;8.308;2023-04-28T14:05:21;14.07;;;12.90;;
12556;SDS011;6344;49.932;8.308;2023-04-28T14:07:48;14.23;;;13.13;;
12556;SDS011;6344;49.932;8.308;2023-04-28T14:10:14;12.20;;;11.40;;
12556;SDS011;6344;49.932;8.308;2023-04-28T14:12:41;12.37;;;11.60;;
12556;SDS011;6344;49.932;8.308;2023-04-28T14:15:08;13.40;;;12.50;;
12556;SDS011;6344;49.932;8.308;2023-04-28T14:17:36;12.73;;;11.93;;
12556;SDS011;6344;49.932;8.308;2023-04-28T14:20:03;12.33;;;11.53;;
12556;SDS011;6344;49.932;8.308;2023-04-28T14:22:31;14.40;;;13.50;;
12556;SDS011;6344;49.932;8.308;2023-04-28T14:24:57;12.77;;;12.00;;
12556;SDS011;6344;49.932;8.308;2023-04-28T14:27:24;12.73;;;11.83;;
12556;SDS011;6344;49.932;8.308;2023-04-28T14:29:51;14.33;;;13.43;;
12556;SDS011;6344;49.932;8.308;2023-04-28T14:32:18;13.83;;;12.87;;
12556;SDS011;6344;49.932;8.308;2023-04-28T14:34:47;11.57;;;10.60;;
12556;SDS011;6344;49.932;8.308;2023-04-28T14:37:15;10.77;;;10.07;;
12556;SDS011;6344;49.932;8.308;2023-04-28T14:39:42;10.40;;;9.80;;
12556;SDS011;6344;49.932;8.308;2023-04-28T14:42:09;10.97;;;10.27;;
12556;SDS011;6344;49.932;8.308;2023-04-28T14:44:36;12.30;;;11.40;;
12556;SDS011;6344;49.932;8.308;2023-04-28T14:47:03;12.20;;;11.50;;
12556;SDS011;6344;49.932;8.308;2023-04-28T14:49:31;11.83;;;11.10;;
12556;SDS011;6344;49.932;8.308;2023-04-28T14:51:59;10.40;;;9.80;;
12556;SDS011;6344;49.932;8.308;2023-04-28T14:54:26;5.10;;;4.80;;
12556;SDS011;6344;49.932;8.308;2023-04-28T14:56:53;4.43;;;4.23;;
12556;SDS011;6344;49.932;8.308;2023-04-28T14:59:19;4.23;;;4.03;;